sensor_id;sensor_type;location;lat;lon;timestamp;P1;durP1;ratioP1;P2;durP2;ratioP2
60211;SDS011;46079;48.686;15.598;2023-02-03T00:02:20;6.25;;;1.55;;
60211;SDS011;46079;48.686;15.598;2023-02-03T00:04:45;5.20;;;1.38;;
60211;SDS011;46079;48.686;15.598;2023-02-03T00:07:11;7.95;;;1.60;;
60211;SDS011;46079;48.686;15.598;2023-02-03T00:09:38;6.22;;;1.50;;
60211;SDS011;46079;48.686;15.598;2023-02-03T00:12:04;4.80;;;1.30;;
60211;SDS011;46079;48.686;15.598;2023-02-03T00:14:30;6.82;;;1.50;;
60211;SDS011;46079;48.686;15.598;2023-02-03T00:16:57;5.93;;;1.40;;
60211;SDS011;46079;48.686;15.598;2023-02-03T00:19:23;5.68;;;1.40;;
60211;SDS011;46079;48.686;15.598;2023-02-03T00:21:48;5.90;;;1.50;;
60211;SDS011;46079;48.686;15.598;2023-02-03T00:24:14;5.65;;;1.55;;
60211;SDS011;46079;48.686;15.598;2023-02-03T00:26:40;5.60;;;1.35;;
60211;SDS011;46079;48.686;15.598;2023-02-03T00:29:06;5.63;;;1.50;;
60211;SDS011;46079;48.686;15.598;2023-02-03T00:31:33;6.25;;;1.60;;
60211;SDS011;46079;48.686;15.598;2023-02-03T00:33:59;6.38;;;1.52;;
60211;SDS011;46079;48.686;15.598;2023-02-03T00:36:25;5.13;;;1.23;;
60211;SDS011;46079;48.686;15.598;2023-02-03T00:38:51;5.28;;;1.60;;
60211;SDS011;46079;48.686;15.598;2023-02-03T00:41:17;5.15;;;1.50;;
60211;SDS011;46079;48.686;15.598;2023-02-03T00:43:43;4.28;;;1.15;;
60211;SDS011;46079;48.686;15.598;2023-02-03T00:46:09;6.47;;;1.48;;
60211;SDS011;46079;48.686;15.598;2023-02-03T00:48:35;5.97;;;1.38;;
60211;SDS011;46079;48.686;15.598;2023-02-03T00:51:00;5.43;;;1.35;;
60211;SDS011;46079;48.686;15.598;2023-02-03T00:53:25;5.18;;;1.20;;
60211;SDS011;46079;48.686;15.598;2023-02-03T00:55:51;5.90;;;1.25;;
60211;SDS011;46079;48.686;15.598;2023-02-03T00:58:16;5.53;;;1.35;;
60211;SDS011;46079;48.686;15.598;2023-02-03T01:00:42;6.45;;;1.48;;
60211;SDS011;46079;48.686;15.598;2023-02-03T01:03:07;6.28;;;1.58;;
60211;SDS011;46079;48.686;15.598;2023-02-03T01:05:34;4.95;;;1.25;;
60211;SDS011;46079;48.686;15.598;2023-02-03T01:08:00;5.28;;;1.30;;
60211;SDS011;46079;48.686;15.598;2023-02-03T01:10:25;6.53;;;1.50;;
60211;SDS011;46079;48.686;15.598;2023-02-03T01:12:51;5.20;;;1.35;;
60211;SDS011;46079;48.686;15.598;2023-02-03T01:15:17;7.05;;;1.55;;
60211;SDS011;46079;48.686;15.598;2023-02-03T01:17:42;5.43;;;1.33;;
60211;SDS011;46079;48.686;15.598;2023-02-03T01:20:08;5.00;;;1.40;;
60211;SDS011;46079;48.686;15.598;2023-02-03T01:22:36;7.50;;;1.67;;
60211;SDS011;46079;48.686;15.598;2023-02-03T01:25:02;5.18;;;1.27;;
60211;SDS011;46079;48.686;15.598;2023-02-03T01:27:27;5.10;;;1.17;;
60211;SDS011;46079;48.686;15.598;2023-02-03T01:29:53;7.88;;;1.50;;
60211;SDS011;46079;48.686;15.598;2023-02-03T01:32:18;4.20;;;1.05;;
60211;SDS011;46079;48.686;15.598;2023-02-03T01:34:44;6.25;;;1.55;;
60211;SDS011;46079;48.686;15.598;2023-02-03T01:37:09;4.53;;;1.15;;
60211;SDS011;46079;48.686;15.598;2023-02-03T01:39:35;5.07;;;1.20;;
60211;SDS011;46079;48.686;15.598;2023-02-03T01:42:00;4.70;;;1.30;;
60211;SDS011;46079;48.686;15.598;2023-02-03T01:47:16;5.82;;;1.23;;
60211;SDS011;46079;48.686;15.598;2023-02-03T01:52:29;4.65;;;1.17;;
60211;SDS011;46079;48.686;15.598;2023-02-03T01:54:56;5.32;;;1.20;;
60211;SDS011;46079;48.686;15.598;2023-02-03T01:57:26;4.65;;;1.20;;
60211;SDS011;46079;48.686;15.598;2023-02-03T01:59:56;5.38;;;1.30;;
60211;SDS011;46079;48.686;15.598;2023-02-03T02:02:23;4.47;;;1.10;;
60211;SDS011;46079;48.686;15.598;2023-02-03T02:07:43;4.63;;;1.20;;
60211;SDS011;46079;48.686;15.598;2023-02-03T02:10:10;5.10;;;1.27;;
60211;SDS011;46079;48.686;15.598;2023-02-03T02:12:36;3.33;;;1.05;;
60211;SDS011;46079;48.686;15.598;2023-02-03T02:15:02;5.15;;;1.25;;
60211;SDS011;46079;48.686;15.598;2023-02-03T02:37:18;3.65;;;0.93;;
60211;SDS011;46079;48.686;15.598;2023-02-03T02:43:56;3.28;;;1.00;;
60211;SDS011;46079;48.686;15.598;2023-02-03T02:46:42;4.82;;;1.20;;
60211;SDS011;46079;48.686;15.598;2023-02-03T02:51:29;3.63;;;1.08;;
60211;SDS011;46079;48.686;15.598;2023-02-03T02:53:58;4.90;;;1.13;;
60211;SDS011;46079;48.686;15.598;2023-02-03T02:56:26;3.58;;;1.00;;
60211;SDS011;46079;48.686;15.598;2023-02-03T02:58:55;4.88;;;1.30;;
60211;SDS011;46079;48.686;15.598;2023-02-03T03:01:23;5.70;;;1.30;;
60211;SDS011;46079;48.686;15.598;2023-02-03T03:03:49;4.68;;;1.23;;
60211;SDS011;46079;48.686;15.598;2023-02-03T03:06:17;4.35;;;1.10;;
60211;SDS011;46079;48.686;15.598;2023-02-03T03:11:19;4.60;;;1.20;;
60211;SDS011;46079;48.686;15.598;2023-02-03T03:13:50;4.03;;;1.10;;
60211;SDS011;46079;48.686;15.598;2023-02-03T03:16:19;5.25;;;1.30;;
60211;SDS011;46079;48.686;15.598;2023-02-03T03:19:05;4.07;;;1.15;;
60211;SDS011;46079;48.686;15.598;2023-02-03T03:24:37;4.82;;;1.13;;
60211;SDS011;46079;48.686;15.598;2023-02-03T03:27:10;4.03;;;1.10;;
60211;SDS011;46079;48.686;15.598;2023-02-03T03:29:47;3.42;;;1.15;;
60211;SDS011;46079;48.686;15.598;2023-02-03T03:32:22;3.88;;;1.23;;
60211;SDS011;46079;48.686;15.598;2023-02-03T03:34:49;5.00;;;1.17;;
60211;SDS011;46079;48.686;15.598;2023-02-03T03:37:19;4.45;;;1.17;;
60211;SDS011;46079;48.686;15.598;2023-02-03T03:40:08;5.38;;;1.17;;
60211;SDS011;46079;48.686;15.598;2023-02-03T03:43:02;5.28;;;1.30;;
60211;SDS011;46079;48.686;15.598;2023-02-03T03:45:37;4.65;;;1.08;;
60211;SDS011;46079;48.686;15.598;2023-02-03T03:48:36;3.63;;;1.10;;
60211;SDS011;46079;48.686;15.598;2023-02-03T03:51:19;3.25;;;0.90;;
60211;SDS011;46079;48.686;15.598;2023-02-03T03:53:53;4.55;;;1.13;;
60211;SDS011;46079;48.686;15.598;2023-02-03T03:56:23;4.05;;;1.05;;
60211;SDS011;46079;48.686;15.598;2023-02-03T03:58:53;4.75;;;1.27;;
60211;SDS011;46079;48.686;15.598;2023-02-03T04:01:19;3.80;;;1.10;;
60211;SDS011;46079;48.686;15.598;2023-02-03T04:03:47;4.10;;;1.10;;
60211;SDS011;46079;48.686;15.598;2023-02-03T04:06:16;3.03;;;0.90;;
60211;SDS011;46079;48.686;15.598;2023-02-03T04:08:42;2.88;;;0.82;;
60211;SDS011;46079;48.686;15.598;2023-02-03T04:11:07;3.15;;;1.00;;
60211;SDS011;46079;48.686;15.598;2023-02-03T04:13:33;3.75;;;1.00;;
60211;SDS011;46079;48.686;15.598;2023-02-03T04:15:58;5.05;;;1.00;;
60211;SDS011;46079;48.686;15.598;2023-02-03T04:18:24;3.28;;;0.80;;
60211;SDS011;46079;48.686;15.598;2023-02-03T04:20:49;3.90;;;1.10;;
60211;SDS011;46079;48.686;15.598;2023-02-03T04:23:15;2.95;;;0.90;;
60211;SDS011;46079;48.686;15.598;2023-02-03T04:25:40;3.58;;;0.95;;
60211;SDS011;46079;48.686;15.598;2023-02-03T04:28:06;5.10;;;1.10;;
60211;SDS011;46079;48.686;15.598;2023-02-03T04:30:31;3.70;;;1.00;;
60211;SDS011;46079;48.686;15.598;2023-02-03T04:32:57;3.08;;;0.90;;
60211;SDS011;46079;48.686;15.598;2023-02-03T04:35:22;3.33;;;1.00;;
60211;SDS011;46079;48.686;15.598;2023-02-03T04:37:48;4.00;;;0.90;;
60211;SDS011;46079;48.686;15.598;2023-02-03T04:40:14;4.47;;;1.20;;
60211;SDS011;46079;48.686;15.598;2023-02-03T04:42:40;4.75;;;1.13;;
60211;SDS011;46079;48.686;15.598;2023-02-03T04:45:06;3.60;;;0.93;;
60211;SDS011;46079;48.686;15.598;2023-02-03T04:47:33;3.33;;;0.93;;
60211;SDS011;46079;48.686;15.598;2023-02-03T04:49:59;3.15;;;0.85;;
60211;SDS011;46079;48.686;15.598;2023-02-03T04:52:25;3.22;;;1.05;;
60211;SDS011;46079;48.686;15.598;2023-02-03T04:54:51;3.38;;;1.00;;
60211;SDS011;46079;48.686;15.598;2023-02-03T04:57:16;3.42;;;1.00;;
60211;SDS011;46079;48.686;15.598;2023-02-03T04:59:42;3.95;;;0.80;;
60211;SDS011;46079;48.686;15.598;2023-02-03T05:02:07;3.58;;;0.95;;
60211;SDS011;46079;48.686;15.598;2023-02-03T05:04:32;2.45;;;0.88;;
60211;SDS011;46079;48.686;15.598;2023-02-03T05:06:58;2.92;;;0.90;;
60211;SDS011;46079;48.686;15.598;2023-02-03T05:09:24;3.58;;;0.88;;
60211;SDS011;46079;48.686;15.598;2023-02-03T05:11:50;2.03;;;0.80;;
60211;SDS011;46079;48.686;15.598;2023-02-03T05:14:15;3.58;;;0.90;;
60211;SDS011;46079;48.686;15.598;2023-02-03T05:16:41;3.33;;;0.95;;
60211;SDS011;46079;48.686;15.598;2023-02-03T05:19:06;2.33;;;0.80;;
60211;SDS011;46079;48.686;15.598;2023-02-03T05:21:32;3.05;;;0.80;;
60211;SDS011;46079;48.686;15.598;2023-02-03T05:23:58;3.50;;;1.00;;
60211;SDS011;46079;48.686;15.598;2023-02-03T05:26:24;2.63;;;0.80;;
60211;SDS011;46079;48.686;15.598;2023-02-03T05:28:50;3.67;;;1.00;;
60211;SDS011;46079;48.686;15.598;2023-02-03T05:31:15;3.13;;;0.90;;
60211;SDS011;46079;48.686;15.598;2023-02-03T05:33:41;2.35;;;0.80;;
60211;SDS011;46079;48.686;15.598;2023-02-03T05:36:06;3.92;;;1.05;;
60211;SDS011;46079;48.686;15.598;2023-02-03T05:38:32;4.13;;;0.90;;
60211;SDS011;46079;48.686;15.598;2023-02-03T05:40:58;3.13;;;0.88;;
60211;SDS011;46079;48.686;15.598;2023-02-03T05:43:42;3.92;;;1.00;;
60211;SDS011;46079;48.686;15.598;2023-02-03T05:46:07;2.30;;;0.80;;
60211;SDS011;46079;48.686;15.598;2023-02-03T05:48:33;3.33;;;0.90;;
60211;SDS011;46079;48.686;15.598;2023-02-03T05:50:59;5.50;;;1.13;;
60211;SDS011;46079;48.686;15.598;2023-02-03T05:53:24;2.47;;;0.70;;
60211;SDS011;46079;48.686;15.598;2023-02-03T05:55:51;4.22;;;0.95;;
60211;SDS011;46079;48.686;15.598;2023-02-03T05:58:17;3.42;;;0.88;;
60211;SDS011;46079;48.686;15.598;2023-02-03T06:00:42;2.15;;;0.77;;
60211;SDS011;46079;48.686;15.598;2023-02-03T06:03:08;3.70;;;1.00;;
60211;SDS011;46079;48.686;15.598;2023-02-03T06:05:33;2.97;;;0.80;;
60211;SDS011;46079;48.686;15.598;2023-02-03T06:08:02;3.03;;;0.80;;
60211;SDS011;46079;48.686;15.598;2023-02-03T06:10:28;4.97;;;1.20;;
60211;SDS011;46079;48.686;15.598;2023-02-03T06:12:53;2.88;;;0.80;;
60211;SDS011;46079;48.686;15.598;2023-02-03T06:15:18;2.28;;;0.80;;
60211;SDS011;46079;48.686;15.598;2023-02-03T06:17:45;2.95;;;0.85;;
60211;SDS011;46079;48.686;15.598;2023-02-03T06:20:12;1.98;;;0.55;;
60211;SDS011;46079;48.686;15.598;2023-02-03T06:22:39;3.30;;;0.82;;
60211;SDS011;46079;48.686;15.598;2023-02-03T06:25:05;2.40;;;0.80;;
60211;SDS011;46079;48.686;15.598;2023-02-03T06:27:31;2.40;;;0.90;;
60211;SDS011;46079;48.686;15.598;2023-02-03T06:29:56;1.90;;;0.60;;
60211;SDS011;46079;48.686;15.598;2023-02-03T06:32:21;2.53;;;0.80;;
60211;SDS011;46079;48.686;15.598;2023-02-03T06:34:47;2.25;;;0.77;;
60211;SDS011;46079;48.686;15.598;2023-02-03T06:37:13;3.22;;;0.90;;
60211;SDS011;46079;48.686;15.598;2023-02-03T06:39:39;2.47;;;0.60;;
60211;SDS011;46079;48.686;15.598;2023-02-03T06:42:04;2.20;;;0.73;;
60211;SDS011;46079;48.686;15.598;2023-02-03T06:44:30;3.53;;;0.90;;
60211;SDS011;46079;48.686;15.598;2023-02-03T06:46:56;2.00;;;0.70;;
60211;SDS011;46079;48.686;15.598;2023-02-03T06:49:22;2.85;;;0.80;;
60211;SDS011;46079;48.686;15.598;2023-02-03T06:51:48;2.72;;;0.80;;
60211;SDS011;46079;48.686;15.598;2023-02-03T06:54:14;1.55;;;0.75;;
60211;SDS011;46079;48.686;15.598;2023-02-03T06:56:39;4.20;;;0.95;;
60211;SDS011;46079;48.686;15.598;2023-02-03T06:59:05;3.30;;;0.85;;
60211;SDS011;46079;48.686;15.598;2023-02-03T07:01:30;3.30;;;1.00;;
60211;SDS011;46079;48.686;15.598;2023-02-03T07:03:56;2.20;;;0.70;;
60211;SDS011;46079;48.686;15.598;2023-02-03T07:06:23;1.35;;;0.70;;
60211;SDS011;46079;48.686;15.598;2023-02-03T07:08:53;4.03;;;0.90;;
60211;SDS011;46079;48.686;15.598;2023-02-03T07:11:20;4.28;;;0.65;;
60211;SDS011;46079;48.686;15.598;2023-02-03T07:13:45;2.05;;;0.50;;
60211;SDS011;46079;48.686;15.598;2023-02-03T07:16:11;2.42;;;0.68;;
60211;SDS011;46079;48.686;15.598;2023-02-03T07:18:37;2.38;;;0.65;;
60211;SDS011;46079;48.686;15.598;2023-02-03T07:21:03;2.10;;;0.70;;
60211;SDS011;46079;48.686;15.598;2023-02-03T07:23:29;2.30;;;0.68;;
60211;SDS011;46079;48.686;15.598;2023-02-03T07:25:57;1.55;;;0.70;;
60211;SDS011;46079;48.686;15.598;2023-02-03T07:28:23;3.47;;;0.80;;
60211;SDS011;46079;48.686;15.598;2023-02-03T07:30:49;1.25;;;0.60;;
60211;SDS011;46079;48.686;15.598;2023-02-03T07:33:14;3.58;;;0.70;;
60211;SDS011;46079;48.686;15.598;2023-02-03T07:35:39;1.65;;;0.65;;
60211;SDS011;46079;48.686;15.598;2023-02-03T07:38:05;2.08;;;0.60;;
60211;SDS011;46079;48.686;15.598;2023-02-03T07:40:30;1.50;;;0.52;;
60211;SDS011;46079;48.686;15.598;2023-02-03T07:42:56;2.03;;;0.50;;
60211;SDS011;46079;48.686;15.598;2023-02-03T07:45:21;1.67;;;0.65;;
60211;SDS011;46079;48.686;15.598;2023-02-03T07:47:48;1.88;;;0.60;;
60211;SDS011;46079;48.686;15.598;2023-02-03T07:50:14;2.22;;;0.80;;
60211;SDS011;46079;48.686;15.598;2023-02-03T07:52:40;1.65;;;0.63;;
60211;SDS011;46079;48.686;15.598;2023-02-03T07:55:06;1.60;;;0.60;;
60211;SDS011;46079;48.686;15.598;2023-02-03T07:57:31;2.80;;;0.70;;
60211;SDS011;46079;48.686;15.598;2023-02-03T07:59:57;1.45;;;0.47;;
60211;SDS011;46079;48.686;15.598;2023-02-03T08:02:22;3.28;;;0.88;;
60211;SDS011;46079;48.686;15.598;2023-02-03T08:04:48;2.63;;;0.60;;
60211;SDS011;46079;48.686;15.598;2023-02-03T08:07:13;1.23;;;0.45;;
60211;SDS011;46079;48.686;15.598;2023-02-03T08:09:39;3.97;;;0.82;;
60211;SDS011;46079;48.686;15.598;2023-02-03T08:12:04;4.30;;;0.90;;
60211;SDS011;46079;48.686;15.598;2023-02-03T08:14:30;3.55;;;0.75;;
60211;SDS011;46079;48.686;15.598;2023-02-03T08:16:56;2.90;;;0.80;;
60211;SDS011;46079;48.686;15.598;2023-02-03T08:19:21;4.15;;;1.08;;
60211;SDS011;46079;48.686;15.598;2023-02-03T08:21:47;2.10;;;0.68;;
60211;SDS011;46079;48.686;15.598;2023-02-03T08:24:12;3.97;;;1.23;;
60211;SDS011;46079;48.686;15.598;2023-02-03T08:26:38;7.75;;;1.00;;
60211;SDS011;46079;48.686;15.598;2023-02-03T08:29:04;5.00;;;0.90;;
60211;SDS011;46079;48.686;15.598;2023-02-03T08:31:29;3.47;;;0.90;;
60211;SDS011;46079;48.686;15.598;2023-02-03T08:33:55;4.88;;;0.93;;
60211;SDS011;46079;48.686;15.598;2023-02-03T08:36:21;2.70;;;0.70;;
60211;SDS011;46079;48.686;15.598;2023-02-03T08:38:46;4.63;;;1.00;;
60211;SDS011;46079;48.686;15.598;2023-02-03T08:41:13;3.08;;;0.88;;
60211;SDS011;46079;48.686;15.598;2023-02-03T08:43:42;4.00;;;1.00;;
60211;SDS011;46079;48.686;15.598;2023-02-03T08:46:08;4.30;;;1.00;;
60211;SDS011;46079;48.686;15.598;2023-02-03T08:48:35;3.90;;;1.17;;
60211;SDS011;46079;48.686;15.598;2023-02-03T08:51:00;3.65;;;0.90;;
60211;SDS011;46079;48.686;15.598;2023-02-03T08:53:26;2.28;;;0.77;;
60211;SDS011;46079;48.686;15.598;2023-02-03T08:55:51;4.90;;;0.93;;
60211;SDS011;46079;48.686;15.598;2023-02-03T08:58:17;4.00;;;0.90;;
60211;SDS011;46079;48.686;15.598;2023-02-03T09:00:43;2.28;;;0.68;;
60211;SDS011;46079;48.686;15.598;2023-02-03T09:03:09;5.32;;;1.00;;
60211;SDS011;46079;48.686;15.598;2023-02-03T09:05:34;4.25;;;1.00;;
60211;SDS011;46079;48.686;15.598;2023-02-03T09:08:00;5.53;;;1.20;;
60211;SDS011;46079;48.686;15.598;2023-02-03T09:10:26;3.13;;;0.90;;
60211;SDS011;46079;48.686;15.598;2023-02-03T09:12:51;5.55;;;1.17;;
60211;SDS011;46079;48.686;15.598;2023-02-03T09:15:17;3.10;;;0.80;;
60211;SDS011;46079;48.686;15.598;2023-02-03T09:17:42;3.67;;;0.85;;
60211;SDS011;46079;48.686;15.598;2023-02-03T09:20:08;4.82;;;1.23;;
60211;SDS011;46079;48.686;15.598;2023-02-03T09:22:34;4.30;;;1.10;;
60211;SDS011;46079;48.686;15.598;2023-02-03T09:24:59;4.00;;;1.00;;
60211;SDS011;46079;48.686;15.598;2023-02-03T09:27:25;4.00;;;0.80;;
60211;SDS011;46079;48.686;15.598;2023-02-03T09:29:51;2.70;;;0.80;;
60211;SDS011;46079;48.686;15.598;2023-02-03T09:32:16;4.03;;;1.00;;
60211;SDS011;46079;48.686;15.598;2023-02-03T09:34:41;4.22;;;1.10;;
60211;SDS011;46079;48.686;15.598;2023-02-03T09:37:07;4.05;;;1.02;;
60211;SDS011;46079;48.686;15.598;2023-02-03T09:39:33;3.63;;;1.02;;
60211;SDS011;46079;48.686;15.598;2023-02-03T09:42:02;2.63;;;0.82;;
60211;SDS011;46079;48.686;15.598;2023-02-03T09:47:01;2.28;;;0.80;;
60211;SDS011;46079;48.686;15.598;2023-02-03T09:52:22;2.95;;;0.90;;
60211;SDS011;46079;48.686;15.598;2023-02-03T09:58:12;5.68;;;0.95;;
60211;SDS011;46079;48.686;15.598;2023-02-03T10:19:48;2.40;;;0.60;;
60211;SDS011;46079;48.686;15.598;2023-02-03T10:22:29;3.42;;;0.90;;
60211;SDS011;46079;48.686;15.598;2023-02-03T10:25:01;4.78;;;0.95;;
60211;SDS011;46079;48.686;15.598;2023-02-03T10:27:40;2.88;;;0.85;;
60211;SDS011;46079;48.686;15.598;2023-02-03T10:30:17;2.75;;;0.70;;
60211;SDS011;46079;48.686;15.598;2023-02-03T10:32:48;3.47;;;0.90;;
60211;SDS011;46079;48.686;15.598;2023-02-03T10:35:32;4.45;;;0.82;;
60211;SDS011;46079;48.686;15.598;2023-02-03T10:38:14;2.90;;;0.82;;
60211;SDS011;46079;48.686;15.598;2023-02-03T10:40:48;4.65;;;0.85;;
60211;SDS011;46079;48.686;15.598;2023-02-03T10:43:13;3.35;;;0.80;;
60211;SDS011;46079;48.686;15.598;2023-02-03T10:45:58;2.28;;;0.68;;
60211;SDS011;46079;48.686;15.598;2023-02-03T10:48:24;3.33;;;0.80;;
60211;SDS011;46079;48.686;15.598;2023-02-03T10:50:49;3.90;;;0.77;;
60211;SDS011;46079;48.686;15.598;2023-02-03T10:56:09;4.10;;;0.90;;
60211;SDS011;46079;48.686;15.598;2023-02-03T10:58:37;3.25;;;0.80;;
60211;SDS011;46079;48.686;15.598;2023-02-03T11:01:14;3.38;;;1.00;;
60211;SDS011;46079;48.686;15.598;2023-02-03T11:03:44;2.70;;;0.70;;
60211;SDS011;46079;48.686;15.598;2023-02-03T11:06:22;1.90;;;0.73;;
60211;SDS011;46079;48.686;15.598;2023-02-03T11:08:49;2.35;;;0.75;;
60211;SDS011;46079;48.686;15.598;2023-02-03T11:13:55;1.08;;;0.50;;
60211;SDS011;46079;48.686;15.598;2023-02-03T11:16:36;2.53;;;0.60;;
60211;SDS011;46079;48.686;15.598;2023-02-03T11:19:02;1.30;;;0.60;;
60211;SDS011;46079;48.686;15.598;2023-02-03T11:21:29;1.92;;;0.70;;
60211;SDS011;46079;48.686;15.598;2023-02-03T11:24:00;3.33;;;0.85;;
60211;SDS011;46079;48.686;15.598;2023-02-03T11:26:46;3.25;;;0.77;;
60211;SDS011;46079;48.686;15.598;2023-02-03T11:31:53;2.65;;;0.75;;
60211;SDS011;46079;48.686;15.598;2023-02-03T11:34:27;0.70;;;0.40;;
60211;SDS011;46079;48.686;15.598;2023-02-03T11:36:53;2.95;;;0.73;;
60211;SDS011;46079;48.686;15.598;2023-02-03T11:41:52;1.88;;;0.60;;
60211;SDS011;46079;48.686;15.598;2023-02-03T11:44:26;3.47;;;0.90;;
60211;SDS011;46079;48.686;15.598;2023-02-03T11:47:01;1.65;;;0.60;;
60211;SDS011;46079;48.686;15.598;2023-02-03T11:49:39;2.90;;;0.75;;
60211;SDS011;46079;48.686;15.598;2023-02-03T11:52:54;1.95;;;0.60;;
60211;SDS011;46079;48.686;15.598;2023-02-03T12:11:39;1.70;;;0.60;;
60211;SDS011;46079;48.686;15.598;2023-02-03T12:17:15;3.88;;;0.80;;
60211;SDS011;46079;48.686;15.598;2023-02-03T12:19:52;3.20;;;0.60;;
60211;SDS011;46079;48.686;15.598;2023-02-03T12:22:35;2.45;;;0.60;;
60211;SDS011;46079;48.686;15.598;2023-02-03T12:25:40;2.78;;;0.70;;
60211;SDS011;46079;48.686;15.598;2023-02-03T12:30:48;2.10;;;0.60;;
60211;SDS011;46079;48.686;15.598;2023-02-03T12:33:19;2.80;;;0.70;;
60211;SDS011;46079;48.686;15.598;2023-02-03T12:35:50;3.08;;;0.50;;
60211;SDS011;46079;48.686;15.598;2023-02-03T12:38:30;3.13;;;0.73;;
60211;SDS011;46079;48.686;15.598;2023-02-03T12:41:23;1.85;;;0.60;;
60211;SDS011;46079;48.686;15.598;2023-02-03T12:43:53;0.90;;;0.40;;
60211;SDS011;46079;48.686;15.598;2023-02-03T12:46:30;1.08;;;0.47;;
60211;SDS011;46079;48.686;15.598;2023-02-03T12:51:51;2.58;;;0.60;;
60211;SDS011;46079;48.686;15.598;2023-02-03T12:54:26;1.00;;;0.40;;
60211;SDS011;46079;48.686;15.598;2023-02-03T12:57:09;2.92;;;0.90;;
60211;SDS011;46079;48.686;15.598;2023-02-03T12:59:39;2.83;;;0.70;;
60211;SDS011;46079;48.686;15.598;2023-02-03T13:02:29;2.65;;;0.63;;
60211;SDS011;46079;48.686;15.598;2023-02-03T13:05:08;2.03;;;0.70;;
60211;SDS011;46079;48.686;15.598;2023-02-03T13:07:47;2.65;;;0.73;;
60211;SDS011;46079;48.686;15.598;2023-02-03T13:10:19;2.50;;;0.80;;
60211;SDS011;46079;48.686;15.598;2023-02-03T13:12:50;1.80;;;0.60;;
60211;SDS011;46079;48.686;15.598;2023-02-03T13:15:39;2.80;;;0.60;;
60211;SDS011;46079;48.686;15.598;2023-02-03T13:18:24;2.30;;;0.60;;
60211;SDS011;46079;48.686;15.598;2023-02-03T13:20:54;2.72;;;0.70;;
60211;SDS011;46079;48.686;15.598;2023-02-03T13:23:19;2.58;;;0.60;;
60211;SDS011;46079;48.686;15.598;2023-02-03T13:33:51;2.75;;;0.70;;
60211;SDS011;46079;48.686;15.598;2023-02-03T13:36:56;3.08;;;0.82;;
60211;SDS011;46079;48.686;15.598;2023-02-03T13:42:23;1.85;;;0.45;;
60211;SDS011;46079;48.686;15.598;2023-02-03T13:44:56;2.10;;;0.50;;
60211;SDS011;46079;48.686;15.598;2023-02-03T13:47:30;1.17;;;0.50;;
60211;SDS011;46079;48.686;15.598;2023-02-03T13:49:58;3.88;;;0.90;;
60211;SDS011;46079;48.686;15.598;2023-02-03T13:55:33;3.20;;;0.80;;
60211;SDS011;46079;48.686;15.598;2023-02-03T13:58:02;2.25;;;0.40;;
60211;SDS011;46079;48.686;15.598;2023-02-03T14:05:48;2.17;;;0.52;;
60211;SDS011;46079;48.686;15.598;2023-02-03T14:13:52;2.53;;;0.70;;
60211;SDS011;46079;48.686;15.598;2023-02-03T14:16:21;0.65;;;0.35;;
60211;SDS011;46079;48.686;15.598;2023-02-03T14:18:48;0.77;;;0.40;;
60211;SDS011;46079;48.686;15.598;2023-02-03T14:21:21;2.75;;;0.70;;
60211;SDS011;46079;48.686;15.598;2023-02-03T14:23:49;3.55;;;0.80;;
60211;SDS011;46079;48.686;15.598;2023-02-03T14:26:21;2.88;;;0.80;;
60211;SDS011;46079;48.686;15.598;2023-02-03T14:28:58;1.33;;;0.52;;
60211;SDS011;46079;48.686;15.598;2023-02-03T14:31:26;2.58;;;0.80;;
60211;SDS011;46079;48.686;15.598;2023-02-03T14:33:54;1.85;;;0.70;;
60211;SDS011;46079;48.686;15.598;2023-02-03T14:36:25;3.05;;;0.73;;
60211;SDS011;46079;48.686;15.598;2023-02-03T14:58:21;2.25;;;0.57;;
60211;SDS011;46079;48.686;15.598;2023-02-03T15:00:53;2.50;;;0.60;;
60211;SDS011;46079;48.686;15.598;2023-02-03T15:03:20;1.08;;;0.50;;
60211;SDS011;46079;48.686;15.598;2023-02-03T15:05:59;1.55;;;0.50;;
60211;SDS011;46079;48.686;15.598;2023-02-03T15:08:30;1.60;;;0.65;;
60211;SDS011;46079;48.686;15.598;2023-02-03T15:11:15;2.13;;;0.60;;
60211;SDS011;46079;48.686;15.598;2023-02-03T15:13:40;1.77;;;0.63;;
60211;SDS011;46079;48.686;15.598;2023-02-03T15:16:09;1.58;;;0.55;;
60211;SDS011;46079;48.686;15.598;2023-02-03T15:18:40;1.92;;;0.60;;
60211;SDS011;46079;48.686;15.598;2023-02-03T15:21:12;1.48;;;0.60;;
60211;SDS011;46079;48.686;15.598;2023-02-03T15:23:41;1.77;;;0.60;;
60211;SDS011;46079;48.686;15.598;2023-02-03T15:26:13;1.77;;;0.75;;
60211;SDS011;46079;48.686;15.598;2023-02-03T15:28:41;1.65;;;0.60;;
60211;SDS011;46079;48.686;15.598;2023-02-03T15:31:28;2.55;;;0.65;;
60211;SDS011;46079;48.686;15.598;2023-02-03T15:33:59;2.00;;;0.57;;
60211;SDS011;46079;48.686;15.598;2023-02-03T15:36:32;1.92;;;0.60;;
60211;SDS011;46079;48.686;15.598;2023-02-03T15:39:13;1.67;;;0.60;;
60211;SDS011;46079;48.686;15.598;2023-02-03T15:41:41;2.65;;;0.75;;
60211;SDS011;46079;48.686;15.598;2023-02-03T15:44:09;0.90;;;0.50;;
60211;SDS011;46079;48.686;15.598;2023-02-03T15:46:43;2.70;;;0.60;;
60211;SDS011;46079;48.686;15.598;2023-02-03T15:49:17;1.15;;;0.60;;
60211;SDS011;46079;48.686;15.598;2023-02-03T15:51:57;1.13;;;0.50;;
60211;SDS011;46079;48.686;15.598;2023-02-03T15:54:32;3.38;;;0.50;;
60211;SDS011;46079;48.686;15.598;2023-02-03T16:00:07;1.67;;;0.60;;
60211;SDS011;46079;48.686;15.598;2023-02-03T16:02:43;0.95;;;0.30;;
60211;SDS011;46079;48.686;15.598;2023-02-03T16:08:44;1.45;;;0.60;;
60211;SDS011;46079;48.686;15.598;2023-02-03T16:11:00;1.48;;;0.60;;
60211;SDS011;46079;48.686;15.598;2023-02-03T16:13:26;1.83;;;0.52;;
60211;SDS011;46079;48.686;15.598;2023-02-03T16:15:57;2.38;;;0.57;;
60211;SDS011;46079;48.686;15.598;2023-02-03T16:18:31;0.77;;;0.43;;
60211;SDS011;46079;48.686;15.598;2023-02-03T16:21:00;0.93;;;0.50;;
60211;SDS011;46079;48.686;15.598;2023-02-03T16:23:27;1.17;;;0.60;;
60211;SDS011;46079;48.686;15.598;2023-02-03T16:28:37;1.30;;;0.43;;
60211;SDS011;46079;48.686;15.598;2023-02-03T16:31:25;1.95;;;0.52;;
60211;SDS011;46079;48.686;15.598;2023-02-03T16:34:18;1.52;;;0.50;;
60211;SDS011;46079;48.686;15.598;2023-02-03T16:37:12;0.77;;;0.30;;
60211;SDS011;46079;48.686;15.598;2023-02-03T16:40:05;1.95;;;0.60;;
60211;SDS011;46079;48.686;15.598;2023-02-03T16:42:49;1.27;;;0.40;;
60211;SDS011;46079;48.686;15.598;2023-02-03T16:45:33;2.45;;;0.63;;
60211;SDS011;46079;48.686;15.598;2023-02-03T16:48:17;1.23;;;0.47;;
60211;SDS011;46079;48.686;15.598;2023-02-03T16:51:02;1.20;;;0.40;;
60211;SDS011;46079;48.686;15.598;2023-02-03T16:53:31;1.13;;;0.50;;
60211;SDS011;46079;48.686;15.598;2023-02-03T16:55:58;0.75;;;0.30;;
60211;SDS011;46079;48.686;15.598;2023-02-03T16:58:28;2.58;;;0.70;;
60211;SDS011;46079;48.686;15.598;2023-02-03T17:00:56;2.03;;;0.50;;
60211;SDS011;46079;48.686;15.598;2023-02-03T17:03:24;0.80;;;0.50;;
60211;SDS011;46079;48.686;15.598;2023-02-03T17:05:51;1.17;;;0.60;;
60211;SDS011;46079;48.686;15.598;2023-02-03T17:08:18;1.13;;;0.50;;
60211;SDS011;46079;48.686;15.598;2023-02-03T17:10:45;1.42;;;0.55;;
60211;SDS011;46079;48.686;15.598;2023-02-03T17:13:12;1.73;;;0.55;;
60211;SDS011;46079;48.686;15.598;2023-02-03T17:15:38;1.55;;;0.60;;
60211;SDS011;46079;48.686;15.598;2023-02-03T17:18:05;1.30;;;0.60;;
60211;SDS011;46079;48.686;15.598;2023-02-03T17:20:30;1.30;;;0.40;;
60211;SDS011;46079;48.686;15.598;2023-02-03T17:22:56;0.60;;;0.43;;
60211;SDS011;46079;48.686;15.598;2023-02-03T17:25:21;0.85;;;0.47;;